Time;durP1;ratioP1;P1;durP2;ratioP2;P2;SDS_P1;SDS_P2;PMS_P1;PMS_P2;Temp;Humidity;BMP_temperature;BMP_pressure;BME280_temperature;BME280_humidity;BME280_pressure;Samples;Min_cycle;Max_cycle;Signal;HPM_P1;HPM_P2
2023/08/28 06:08:27;;;;;;;7.40;1.80;;;;;;;;;;6151048;23;20040;-85
2023/08/28 06:10:53;;;;;;;6.57;1.50;;;;;;;;;;6129688;23;20018;-86
2023/08/28 06:13:19;;;;;;;7.75;1.20;;;;;;;;;;6132981;23;20382;-86
2023/08/28 06:15:53;;;;;;;4.18;1.10;;;;;;;;;;6132584;23;20005;-86
2023/08/28 06:18:19;;;;;;;7.80;1.83;;;;;;;;;;6125471;23;20012;-86
2023/08/28 06:20:45;;;;;;;4.72;0.95;;;;;;;;;;6130529;23;20006;-85
2023/08/28 06:23:11;;;;;;;6.20;2.17;;;;;;;;;;6131271;23;20006;-85
2023/08/28 06:28:29;;;;;;;5.45;1.10;;;;;;;;;;6157397;23;20134;-84
2023/08/28 06:30:56;;;;;;;5.18;1.27;;;;;;;;;;6130363;23;20010;-83
2023/08/28 06:33:22;;;;;;;4.05;1.10;;;;;;;;;;6131228;23;20382;-84
2023/08/28 06:35:57;;;;;;;6.63;1.65;;;;;;;;;;6131136;23;20057;-86
2023/08/28 06:38:23;;;;;;;3.55;1.33;;;;;;;;;;6125373;23;20028;-83
2023/08/28 06:40:50;;;;;;;6.10;1.27;;;;;;;;;;6123269;23;20092;-85
2023/08/28 06:43:16;;;;;;;5.95;1.60;;;;;;;;;;6124278;23;20021;-85
2023/08/28 06:45:58;;;;;;;3.15;0.90;;;;;;;;;;6125315;23;20140;-87
2023/08/28 06:48:24;;;;;;;7.47;1.23;;;;;;;;;;6124094;23;20028;-86
2023/08/28 06:50:53;;;;;;;4.78;1.20;;;;;;;;;;6124819;23;20295;-86
2023/08/28 06:53:19;;;;;;;3.35;1.05;;;;;;;;;;6150387;23;20012;-85
2023/08/28 06:55:45;;;;;;;5.18;1.38;;;;;;;;;;6125675;23;20037;-85
2023/08/28 06:58:11;;;;;;;3.75;1.35;;;;;;;;;;6127065;23;20044;-86
2023/08/28 07:00:46;;;;;;;3.72;1.33;;;;;;;;;;6153830;23;20041;-86
2023/08/28 07:03:12;;;;;;;3.28;0.90;;;;;;;;;;6151432;23;20055;-87
2023/08/28 07:05:39;;;;;;;4.95;1.05;;;;;;;;;;6127130;23;20753;-87
2023/08/28 07:08:09;;;;;;;7.93;2.17;;;;;;;;;;6126249;23;20460;-87
2023/08/28 07:10:35;;;;;;;6.63;2.63;;;;;;;;;;6128479;23;20441;-86
2023/08/28 07:13:06;;;;;;;6.93;2.97;;;;;;;;;;6127426;23;20021;-86
2023/08/28 07:15:32;;;;;;;5.25;1.60;;;;;;;;;;6151203;23;20037;-87
2023/08/28 07:18:07;;;;;;;6.47;2.00;;;;;;;;;;6151549;23;20024;-88
2023/08/28 07:23:03;;;;;;;4.90;1.92;;;;;;;;;;6153657;23;20438;-86
2023/08/28 07:25:31;;;;;;;5.05;2.20;;;;;;;;;;6126712;23;20006;-88
2023/08/28 07:33:13;;;;;;;2.75;0.90;;;;;;;;;;6154644;23;20795;-87
2023/08/28 07:36:05;;;;;;;1.80;0.47;;;;;;;;;;6126145;23;20081;-88
2023/08/28 07:51:02;;;;;;;3.92;0.45;;;;;;;;;;6150678;23;20032;-89
2023/08/28 07:53:43;;;;;;;;;;;;;;;;;;;;;
2023/08/28 07:56:30;;;;;;;3.28;0.70;;;;;;;;;;6158110;23;20106;-88
2023/08/28 07:59:24;;;;;;;6.93;1.13;;;;;;;;;;6131778;23;20021;-89
2023/08/28 08:02:14;;;;;;;8.48;1.40;;;;;;;;;;6137087;22;20025;-87
2023/08/28 08:07:47;;;;;;;5.75;1.55;;;;;;;;;;6157239;23;20031;-89
2023/08/28 08:10:16;;;;;;;10.90;2.50;;;;;;;;;;6131145;23;20002;-89
2023/08/28 08:13:16;;;;;;;7.28;2.30;;;;;;;;;;6130179;23;20033;-89
2023/08/28 08:19:20;;;;;;;10.23;1.70;;;;;;;;;;6066296;23;20046;-89
2023/08/28 08:21:49;;;;;;;4.45;1.38;;;;;;;;;;6132066;23;20006;-90
2023/08/28 08:24:28;;;;;;;6.13;2.05;;;;;;;;;;6130822;23;20291;-89
2023/08/28 08:29:59;;;;;;;7.68;1.00;;;;;;;;;;6157274;23;20025;-90
2023/08/28 08:32:30;;;;;;;4.18;0.98;;;;;;;;;;6131606;23;20057;-89
2023/08/28 08:35:04;;;;;;;3.25;1.02;;;;;;;;;;6131849;23;20010;-89
2023/08/28 08:37:40;;;;;;;3.78;0.90;;;;;;;;;;6131819;23;20028;-90
2023/08/28 08:43:12;;;;;;;3.35;0.90;;;;;;;;;;6092849;23;20399;-88
2023/08/28 08:45:38;;;;;;;2.25;0.43;;;;;;;;;;6068728;23;20390;-91
2023/08/28 08:48:08;;;;;;;2.85;0.60;;;;;;;;;;6088307;23;20021;-86
2023/08/28 08:50:40;;;;;;;2.85;0.60;;;;;;;;;;6156769;23;20749;-87
2023/08/28 08:53:31;;;;;;;3.03;0.60;;;;;;;;;;6156248;23;20390;-91
2023/08/28 08:56:15;;;;;;;4.82;1.00;;;;;;;;;;6181668;23;20520;-91
2023/08/28 08:58:41;;;;;;;3.08;0.80;;;;;;;;;;6181894;23;20103;-89
2023/08/28 09:01:08;;;;;;;4.63;0.50;;;;;;;;;;6181633;23;20084;-89
2023/08/28 09:03:34;;;;;;;1.58;0.50;;;;;;;;;;6179189;23;20370;-91
2023/08/28 09:06:01;;;;;;;2.20;0.50;;;;;;;;;;6180095;23;20084;-90
2023/08/28 09:08:28;;;;;;;3.17;0.43;;;;;;;;;;6180430;23;20016;-90
2023/08/28 09:10:58;;;;;;;1.45;0.40;;;;;;;;;;6156195;23;20008;-91
2023/08/28 09:13:27;;;;;;;2.40;0.55;;;;;;;;;;6180862;23;20094;-91
2023/08/28 09:15:53;;;;;;;3.80;0.73;;;;;;;;;;6181745;23;20016;-91
2023/08/28 09:18:20;;;;;;;3.55;0.60;;;;;;;;;;6175996;23;20013;-85
2023/08/28 09:21:05;;;;;;;3.13;0.50;;;;;;;;;;6180628;23;20013;-89
2023/08/28 09:23:35;;;;;;;3.08;0.60;;;;;;;;;;6180030;23;20013;-90
2023/08/28 09:26:03;;;;;;;2.92;0.45;;;;;;;;;;6179333;23;20017;-91
2023/08/28 09:28:29;;;;;;;2.70;0.60;;;;;;;;;;6179712;23;20028;-89
2023/08/28 09:30:55;;;;;;;3.78;0.65;;;;;;;;;;6179866;23;20646;-91
2023/08/28 09:33:21;;;;;;;3.88;0.70;;;;;;;;;;6180224;23;20585;-90
2023/08/28 09:35:47;;;;;;;2.97;0.70;;;;;;;;;;6180701;23;20013;-90
2023/08/28 09:38:13;;;;;;;1.45;0.50;;;;;;;;;;6182278;23;20016;-88
2023/08/28 09:40:55;;;;;;;1.77;0.70;;;;;;;;;;6181954;23;20071;-89
2023/08/28 09:43:24;;;;;;;2.10;1.02;;;;;;;;;;6182580;23;20044;-88
2023/08/28 09:46:06;;;;;;;3.03;0.80;;;;;;;;;;6181184;23;20017;-88
2023/08/28 09:48:33;;;;;;;3.53;0.82;;;;;;;;;;6181003;23;20020;-87
2023/08/28 09:51:07;;;;;;;0.98;0.40;;;;;;;;;;6179942;23;20017;-87
2023/08/28 09:53:33;;;;;;;3.53;0.68;;;;;;;;;;6180716;23;20071;-88
2023/08/28 09:56:18;;;;;;;4.53;1.13;;;;;;;;;;6180824;23;20013;-86
2023/08/28 09:59:03;;;;;;;1.45;0.52;;;;;;;;;;6150606;23;20025;-87
2023/08/28 10:01:48;;;;;;;;;;;;;;;;;;;;;
2023/08/28 10:10:21;;;;;;;2.80;0.60;;;;;;;;;;6172922;22;20468;-87
2023/08/28 10:13:16;;;;;;;3.65;0.85;;;;;;;;;;6156364;23;20023;-85
2023/08/28 10:19:46;;;;;;;2.70;0.73;;;;;;;;;;6089873;23;20013;-88
2023/08/28 10:28:29;;;;;;;3.42;0.60;;;;;;;;;;6048440;23;20047;-88
2023/08/28 10:30:58;;;;;;;2.35;0.68;;;;;;;;;;6039101;23;20339;-86
2023/08/28 10:33:24;;;;;;;3.88;0.57;;;;;;;;;;6155216;23;20024;-85
2023/08/28 10:35:53;;;;;;;2.13;0.80;;;;;;;;;;6183182;23;20012;-84
2023/08/28 10:38:32;;;;;;;2.08;0.40;;;;;;;;;;6157048;23;20084;-87
2023/08/28 10:40:58;;;;;;;3.08;0.60;;;;;;;;;;6157732;23;20116;-86
2023/08/28 10:43:27;;;;;;;3.42;0.70;;;;;;;;;;6184509;23;20004;-84
2023/08/28 10:45:55;;;;;;;3.55;0.70;;;;;;;;;;6158241;23;20012;-86
2023/08/28 10:48:22;;;;;;;3.75;0.40;;;;;;;;;;6159091;23;20270;-85
2023/08/28 10:51:02;;;;;;;2.97;0.50;;;;;;;;;;6186805;23;20009;-85
2023/08/28 10:53:44;;;;;;;1.67;0.73;;;;;;;;;;6159542;23;20024;-85
2023/08/28 10:56:13;;;;;;;5.07;1.03;;;;;;;;;;6162223;23;20013;-85
2023/08/28 11:02:00;;;;;;;2.53;0.50;;;;;;;;;;6186962;23;20042;-83
2023/08/28 11:04:35;;;;;;;3.67;0.52;;;;;;;;;;6187031;23;20012;-86
2023/08/28 11:07:06;;;;;;;1.67;0.40;;;;;;;;;;6159624;23;20013;-88
2023/08/28 11:10:08;;;;;;;1.43;0.30;;;;;;;;;;6161774;23;20024;-87
2023/08/28 11:12:51;;;;;;;3.97;0.70;;;;;;;;;;6163140;23;20087;-86
2023/08/28 11:15:26;;;;;;;6.93;0.65;;;;;;;;;;6160070;23;20009;-85
2023/08/28 11:23:42;;;;;;;1.42;0.30;;;;;;;;;;6163847;23;20030;-87
2023/08/28 11:26:33;;;;;;;0.95;0.30;;;;;;;;;;6147549;22;20108;-88
2023/08/28 11:32:29;;;;;;;2.05;0.50;;;;;;;;;;6185965;23;20324;-88
2023/08/28 11:37:33;;;;;;;4.75;0.73;;;;;;;;;;6156846;23;20025;-90
2023/08/28 11:40:06;;;;;;;3.75;0.73;;;;;;;;;;6156072;23;20017;-89
2023/08/28 11:42:33;;;;;;;1.45;0.43;;;;;;;;;;6157842;23;20016;-87
2023/08/28 11:44:59;;;;;;;4.70;0.75;;;;;;;;;;6157858;23;20009;-89
2023/08/28 11:47:51;;;;;;;;;;;;;;;;;;;;;
2023/08/28 11:50:26;;;;;;;0.82;0.32;;;;;;;;;;6183401;23;20092;-89
2023/08/28 11:56:20;;;;;;;1.80;0.60;;;;;;;;;;6171323;23;20040;-88
2023/08/28 11:58:46;;;;;;;1.33;0.40;;;;;;;;;;6160222;23;20017;-87
2023/08/28 12:01:14;;;;;;;1.58;0.40;;;;;;;;;;6157174;23;20012;-88
2023/08/28 12:03:42;;;;;;;1.75;0.43;;;;;;;;;;6157308;23;20013;-87
2023/08/28 12:16:49;;;;;;;0.95;0.45;;;;;;;;;;6152855;23;20032;-92
2023/08/28 12:24:41;;;;;;;2.83;0.57;;;;;;;;;;6168998;23;20448;-90
2023/08/28 12:33:24;;;;;;;2.70;0.60;;;;;;;;;;6185851;23;20084;-89
2023/08/28 12:41:33;;;;;;;;;;;;;;;;;;;;;
2023/08/28 12:43:59;;;;;;;3.03;0.60;;;;;;;;;;6182682;23;20087;-84
2023/08/28 14:11:48;;;;;;;2.30;0.60;;;;;;;;;;6182305;23;20031;-87
2023/08/28 15:46:14;;;;;;;2.20;0.60;;;;;;;;;;6182314;23;20079;31
2023/08/28 17:02:25;;;;;;;2.85;0.63;;;;;;;;;;6185742;23;20480;-88
2023/08/28 17:05:16;;;;;;;2.40;0.88;;;;;;;;;;6181857;23;20029;-88
2023/08/28 17:07:42;;;;;;;3.85;0.77;;;;;;;;;;6172726;23;20021;-87
2023/08/28 17:10:11;;;;;;;2.95;0.65;;;;;;;;;;6186660;23;20001;-85
2023/08/28 17:19:15;;;;;;;3.90;0.93;;;;;;;;;;6163827;23;20056;-86
2023/08/28 17:31:11;;;;;;;2.25;0.45;;;;;;;;;;6156139;23;20479;-86
2023/08/28 17:34:12;;;;;;;2.05;0.50;;;;;;;;;;6092757;23;20129;-86
2023/08/28 17:42:49;;;;;;;1.40;0.40;;;;;;;;;;6186593;23;20444;-87
2023/08/28 17:45:20;;;;;;;1.95;0.50;;;;;;;;;;6185634;23;20009;-87
2023/08/28 17:50:48;;;;;;;1.50;0.50;;;;;;;;;;6185898;23;20009;-89
2023/08/28 17:53:56;;;;;;;1.50;0.40;;;;;;;;;;6132875;23;20030;-85
2023/08/28 17:56:24;;;;;;;2.63;0.60;;;;;;;;;;6183877;23;20432;-86
2023/08/28 18:07:49;;;;;;;3.60;0.90;;;;;;;;;;6189195;22;20017;-84
2023/08/28 18:23:05;;;;;;;1.27;0.40;;;;;;;;;;6157979;23;20048;-85
2023/08/28 18:29:05;;;;;;;1.55;0.43;;;;;;;;;;6153665;23;20337;-86
2023/08/28 18:37:51;;;;;;;2.17;0.60;;;;;;;;;;6167118;23;20459;-85
2023/08/28 18:49:05;;;;;;;2.28;0.70;;;;;;;;;;6067724;23;20015;-85
2023/08/28 18:51:38;;;;;;;0.93;0.40;;;;;;;;;;6062807;23;20009;-85
2023/08/28 18:54:04;;;;;;;6.22;2.55;;;;;;;;;;6186020;23;20028;-85
2023/08/28 18:57:15;;;;;;;4.22;1.20;;;;;;;;;;6185988;23;20005;-86
2023/08/28 19:05:23;;;;;;;3.20;0.60;;;;;;;;;;6158832;23;20453;-85
2023/08/28 19:08:09;;;;;;;3.17;0.40;;;;;;;;;;6133072;23;20002;-85
2023/08/28 19:10:41;;;;;;;0.63;0.35;;;;;;;;;;6133028;23;20436;-85
2023/08/28 19:16:10;;;;;;;3.35;0.90;;;;;;;;;;6144104;23;20503;-84
2023/08/28 19:21:48;;;;;;;2.65;0.60;;;;;;;;;;6159112;23;20008;-85
2023/08/28 22:06:42;;;;;;;1.65;0.60;;;;;;;;;;6067706;23;20025;-84
2023/08/28 22:10:02;;;;;;;;;;;;;;;;;;;;;
2023/08/28 22:12:42;;;;;;;2.15;0.60;;;;;;;;;;6067589;23;20110;-84
2023/08/28 22:21:46;;;;;;;;;;;;;;;;;;;;;
2023/08/28 22:34:04;;;;;;;5.93;0.70;;;;;;;;;;6137720;23;20351;-85
